sensor_id;sensor_type;location;lat;lon;timestamp;pressure;altitude;pressure_sealevel;temperature;humidity
41078;BME280;26823;42.662;23.352;2023-03-14T00:01:14;94993.03;;;3.28;55.06
41078;BME280;26823;42.662;23.352;2023-03-14T00:03:40;94989.28;;;3.17;56.58
41078;BME280;26823;42.662;23.352;2023-03-14T00:06:06;94979.53;;;2.92;53.88
41078;BME280;26823;42.662;23.352;2023-03-14T00:08:32;94964.44;;;2.67;52.33
41078;BME280;26823;42.662;23.352;2023-03-14T00:10:57;94959.00;;;2.43;53.08
41078;BME280;26823;42.662;23.352;2023-03-14T00:13:23;94973.84;;;2.70;53.40
41078;BME280;26823;42.662;23.352;2023-03-14T00:15:49;94968.50;;;2.70;54.63
41078;BME280;26823;42.662;23.352;2023-03-14T00:18:14;94973.47;;;2.85;54.36
41078;BME280;26823;42.662;23.352;2023-03-14T00:20:40;94959.03;;;2.74;54.40
41078;BME280;26823;42.662;23.352;2023-03-14T00:23:06;94963.16;;;2.70;55.70
41078;BME280;26823;42.662;23.352;2023-03-14T00:25:31;94933.97;;;2.56;55.17
41078;BME280;26823;42.662;23.352;2023-03-14T00:27:57;94942.94;;;2.62;55.64
41078;BME280;26823;42.662;23.352;2023-03-14T00:30:22;94931.03;;;2.46;56.39
41078;BME280;26823;42.662;23.352;2023-03-14T00:32:48;94949.09;;;2.63;55.70
41078;BME280;26823;42.662;23.352;2023-03-14T00:35:13;94937.56;;;2.50;55.78
41078;BME280;26823;42.662;23.352;2023-03-14T00:37:38;94935.91;;;2.49;57.05
41078;BME280;26823;42.662;23.352;2023-03-14T00:40:04;94937.09;;;2.53;55.99
41078;BME280;26823;42.662;23.352;2023-03-14T00:42:32;94929.78;;;2.30;57.09
41078;BME280;26823;42.662;23.352;2023-03-14T00:44:58;94940.75;;;2.40;57.69
41078;BME280;26823;42.662;23.352;2023-03-14T00:47:23;94926.75;;;2.26;56.45
41078;BME280;26823;42.662;23.352;2023-03-14T00:49:49;94926.59;;;2.40;58.50
41078;BME280;26823;42.662;23.352;2023-03-14T00:52:14;94925.69;;;2.46;57.37
41078;BME280;26823;42.662;23.352;2023-03-14T00:54:40;94913.91;;;2.35;57.82
41078;BME280;26823;42.662;23.352;2023-03-14T00:57:05;94923.78;;;2.35;58.55
41078;BME280;26823;42.662;23.352;2023-03-14T00:59:31;94923.53;;;2.36;58.08
41078;BME280;26823;42.662;23.352;2023-03-14T01:01:56;94918.06;;;2.31;58.40
41078;BME280;26823;42.662;23.352;2023-03-14T01:04:22;94928.22;;;2.41;60.14
41078;BME280;26823;42.662;23.352;2023-03-14T01:06:47;94917.78;;;2.21;60.57
41078;BME280;26823;42.662;23.352;2023-03-14T01:09:13;94902.81;;;2.01;61.08
41078;BME280;26823;42.662;23.352;2023-03-14T01:11:38;94920.22;;;2.22;60.17
41078;BME280;26823;42.662;23.352;2023-03-14T01:14:04;94922.59;;;2.12;62.09
41078;BME280;26823;42.662;23.352;2023-03-14T01:16:32;94917.09;;;1.88;62.27
41078;BME280;26823;42.662;23.352;2023-03-14T01:18:58;94911.63;;;1.83;62.51
41078;BME280;26823;42.662;23.352;2023-03-14T01:21:28;94900.56;;;1.79;63.42
41078;BME280;26823;42.662;23.352;2023-03-14T01:23:56;94907.25;;;1.70;63.62
41078;BME280;26823;42.662;23.352;2023-03-14T01:26:23;94887.16;;;1.68;63.59
41078;BME280;26823;42.662;23.352;2023-03-14T01:28:51;94887.34;;;1.48;64.08
41078;BME280;26823;42.662;23.352;2023-03-14T01:31:17;94883.34;;;1.38;64.39
41078;BME280;26823;42.662;23.352;2023-03-14T01:33:43;94892.00;;;1.34;65.21
41078;BME280;26823;42.662;23.352;2023-03-14T01:36:09;94893.94;;;1.45;64.73
41078;BME280;26823;42.662;23.352;2023-03-14T01:38:36;94887.59;;;1.46;64.70
41078;BME280;26823;42.662;23.352;2023-03-14T01:41:03;94878.72;;;1.52;64.58
41078;BME280;26823;42.662;23.352;2023-03-14T01:43:29;94888.53;;;1.52;65.08
41078;BME280;26823;42.662;23.352;2023-03-14T01:48:25;94851.09;;;1.21;65.12
41078;BME280;26823;42.662;23.352;2023-03-14T01:50:53;94845.47;;;1.11;65.86
41078;BME280;26823;42.662;23.352;2023-03-14T01:53:18;94880.88;;;1.11;66.55
41078;BME280;26823;42.662;23.352;2023-03-14T01:55:47;94872.97;;;1.05;67.10
41078;BME280;26823;42.662;23.352;2023-03-14T01:58:14;94863.16;;;0.98;66.96
41078;BME280;26823;42.662;23.352;2023-03-14T02:00:41;94849.22;;;1.03;67.38
41078;BME280;26823;42.662;23.352;2023-03-14T02:03:11;94869.91;;;1.26;68.00
41078;BME280;26823;42.662;23.352;2023-03-14T02:05:40;94871.16;;;0.98;68.79
41078;BME280;26823;42.662;23.352;2023-03-14T02:08:09;94864.78;;;0.74;69.49
41078;BME280;26823;42.662;23.352;2023-03-14T02:10:41;94879.66;;;0.89;69.78
41078;BME280;26823;42.662;23.352;2023-03-14T02:13:08;94875.94;;;0.90;69.52
41078;BME280;26823;42.662;23.352;2023-03-14T02:15:34;94856.00;;;0.74;69.95
41078;BME280;26823;42.662;23.352;2023-03-14T02:18:01;94862.06;;;0.81;70.45
41078;BME280;26823;42.662;23.352;2023-03-14T02:23:02;94864.59;;;1.01;69.30
41078;BME280;26823;42.662;23.352;2023-03-14T02:28:09;94862.69;;;1.08;69.60
41078;BME280;26823;42.662;23.352;2023-03-14T02:30:34;94854.31;;;1.05;69.74
41078;BME280;26823;42.662;23.352;2023-03-14T02:33:20;94860.78;;;1.16;70.22
41078;BME280;26823;42.662;23.352;2023-03-14T02:36:13;94862.25;;;1.11;69.23
41078;BME280;26823;42.662;23.352;2023-03-14T02:41:07;94871.38;;;0.97;70.82
41078;BME280;26823;42.662;23.352;2023-03-14T02:43:33;94878.41;;;0.91;71.51
41078;BME280;26823;42.662;23.352;2023-03-14T02:46:00;94858.75;;;0.60;70.97
41078;BME280;26823;42.662;23.352;2023-03-14T02:48:32;94880.88;;;0.61;71.06
41078;BME280;26823;42.662;23.352;2023-03-14T02:51:00;94870.47;;;0.53;70.78
41078;BME280;26823;42.662;23.352;2023-03-14T02:53:29;94861.16;;;0.30;70.87
41078;BME280;26823;42.662;23.352;2023-03-14T02:55:55;94874.66;;;0.35;71.18
41078;BME280;26823;42.662;23.352;2023-03-14T02:58:21;94873.22;;;0.32;71.47
41078;BME280;26823;42.662;23.352;2023-03-14T03:00:46;94873.41;;;0.38;71.41
41078;BME280;26823;42.662;23.352;2023-03-14T03:03:12;94881.78;;;0.41;71.43
41078;BME280;26823;42.662;23.352;2023-03-14T03:05:38;94881.16;;;0.46;71.12
41078;BME280;26823;42.662;23.352;2023-03-14T03:08:04;94870.50;;;0.46;71.54
41078;BME280;26823;42.662;23.352;2023-03-14T03:10:29;94879.75;;;0.75;70.84
41078;BME280;26823;42.662;23.352;2023-03-14T03:12:55;94879.28;;;0.85;70.51
41078;BME280;26823;42.662;23.352;2023-03-14T03:15:21;94872.41;;;0.96;70.43
41078;BME280;26823;42.662;23.352;2023-03-14T03:17:47;94874.06;;;0.97;68.92
41078;BME280;26823;42.662;23.352;2023-03-14T03:20:12;94873.28;;;0.90;69.29
41078;BME280;26823;42.662;23.352;2023-03-14T03:22:38;94868.66;;;0.78;70.17
41078;BME280;26823;42.662;23.352;2023-03-14T03:25:05;94814.41;;;0.47;69.78
41078;BME280;26823;42.662;23.352;2023-03-14T03:27:32;94869.81;;;0.89;71.36
41078;BME280;26823;42.662;23.352;2023-03-14T03:29:58;94866.22;;;1.02;70.85
41078;BME280;26823;42.662;23.352;2023-03-14T03:32:24;94878.97;;;1.00;70.98
41078;BME280;26823;42.662;23.352;2023-03-14T03:34:49;94863.22;;;0.92;69.81
41078;BME280;26823;42.662;23.352;2023-03-14T03:37:15;94857.81;;;1.05;69.18
41078;BME280;26823;42.662;23.352;2023-03-14T03:39:40;94854.59;;;0.96;69.08
41078;BME280;26823;42.662;23.352;2023-03-14T03:42:06;94823.78;;;0.50;70.34
41078;BME280;26823;42.662;23.352;2023-03-14T03:44:31;94867.56;;;0.61;71.05
41078;BME280;26823;42.662;23.352;2023-03-14T03:46:56;94865.91;;;0.60;71.45
41078;BME280;26823;42.662;23.352;2023-03-14T03:49:22;94877.84;;;0.51;71.82
41078;BME280;26823;42.662;23.352;2023-03-14T03:51:47;94872.94;;;0.47;72.02
41078;BME280;26823;42.662;23.352;2023-03-14T03:54:13;94868.06;;;0.44;71.48
41078;BME280;26823;42.662;23.352;2023-03-14T03:56:38;94870.13;;;0.42;71.57
41078;BME280;26823;42.662;23.352;2023-03-14T03:59:03;94878.09;;;0.42;72.20
41078;BME280;26823;42.662;23.352;2023-03-14T04:01:29;94882.97;;;0.45;71.59
41078;BME280;26823;42.662;23.352;2023-03-14T04:03:54;94875.91;;;0.32;71.29
41078;BME280;26823;42.662;23.352;2023-03-14T04:06:20;94886.88;;;0.50;71.34
41078;BME280;26823;42.662;23.352;2023-03-14T04:08:45;94887.25;;;0.53;70.88
41078;BME280;26823;42.662;23.352;2023-03-14T04:11:10;94884.94;;;0.63;69.64
41078;BME280;26823;42.662;23.352;2023-03-14T04:13:36;94875.16;;;0.57;70.30
41078;BME280;26823;42.662;23.352;2023-03-14T04:16:01;94874.31;;;0.63;69.68
41078;BME280;26823;42.662;23.352;2023-03-14T04:18:27;94865.44;;;0.70;69.72
41078;BME280;26823;42.662;23.352;2023-03-14T04:20:55;94866.94;;;0.59;69.81
41078;BME280;26823;42.662;23.352;2023-03-14T04:23:21;94865.66;;;0.36;70.90
41078;BME280;26823;42.662;23.352;2023-03-14T04:25:50;94860.19;;;0.24;71.62
41078;BME280;26823;42.662;23.352;2023-03-14T04:28:15;94856.63;;;0.37;70.91
41078;BME280;26823;42.662;23.352;2023-03-14T04:30:41;94854.25;;;0.22;71.37
41078;BME280;26823;42.662;23.352;2023-03-14T04:33:06;94842.44;;;0.11;71.91
41078;BME280;26823;42.662;23.352;2023-03-14T04:35:32;94854.19;;;0.36;71.52
41078;BME280;26823;42.662;23.352;2023-03-14T04:37:58;94846.84;;;0.31;71.00
41078;BME280;26823;42.662;23.352;2023-03-14T04:40:24;94840.91;;;0.29;71.51
41078;BME280;26823;42.662;23.352;2023-03-14T04:42:50;94830.59;;;0.46;72.05
41078;BME280;26823;42.662;23.352;2023-03-14T04:45:15;94833.25;;;0.46;70.75
41078;BME280;26823;42.662;23.352;2023-03-14T04:47:40;94837.34;;;0.42;71.16
41078;BME280;26823;42.662;23.352;2023-03-14T04:50:06;94835.41;;;0.56;70.87
41078;BME280;26823;42.662;23.352;2023-03-14T04:52:32;94824.19;;;0.54;71.07
41078;BME280;26823;42.662;23.352;2023-03-14T04:54:57;94818.25;;;0.52;71.03
41078;BME280;26823;42.662;23.352;2023-03-14T04:57:23;94829.41;;;0.67;70.65
41078;BME280;26823;42.662;23.352;2023-03-14T04:59:48;94827.81;;;0.59;71.61
41078;BME280;26823;42.662;23.352;2023-03-14T05:02:13;94821.69;;;0.59;71.53
41078;BME280;26823;42.662;23.352;2023-03-14T05:04:39;94831.09;;;0.61;71.38
41078;BME280;26823;42.662;23.352;2023-03-14T05:07:04;94834.19;;;0.58;71.60
41078;BME280;26823;42.662;23.352;2023-03-14T05:09:30;94821.38;;;0.42;72.83
41078;BME280;26823;42.662;23.352;2023-03-14T05:11:55;94824.78;;;0.56;73.70
41078;BME280;26823;42.662;23.352;2023-03-14T05:14:20;94828.88;;;0.58;73.23
41078;BME280;26823;42.662;23.352;2023-03-14T05:16:46;94823.00;;;0.50;72.92
41078;BME280;26823;42.662;23.352;2023-03-14T05:19:11;94807.50;;;0.40;73.32
41078;BME280;26823;42.662;23.352;2023-03-14T05:21:37;94829.63;;;0.65;72.65
41078;BME280;26823;42.662;23.352;2023-03-14T05:24:03;94809.00;;;0.61;73.09
41078;BME280;26823;42.662;23.352;2023-03-14T05:26:29;94824.00;;;0.80;72.44
41078;BME280;26823;42.662;23.352;2023-03-14T05:28:55;94822.81;;;0.70;73.42
41078;BME280;26823;42.662;23.352;2023-03-14T05:31:20;94820.22;;;0.88;72.87
41078;BME280;26823;42.662;23.352;2023-03-14T05:33:46;94816.81;;;0.81;72.55
41078;BME280;26823;42.662;23.352;2023-03-14T05:36:12;94814.84;;;0.95;72.31
41078;BME280;26823;42.662;23.352;2023-03-14T05:38:37;94821.31;;;1.06;73.19
41078;BME280;26823;42.662;23.352;2023-03-14T05:41:03;94810.97;;;1.16;71.94
41078;BME280;26823;42.662;23.352;2023-03-14T05:43:28;94820.25;;;1.32;70.57
41078;BME280;26823;42.662;23.352;2023-03-14T05:45:54;94823.00;;;1.44;71.33
41078;BME280;26823;42.662;23.352;2023-03-14T05:48:19;94811.09;;;1.46;70.67
41078;BME280;26823;42.662;23.352;2023-03-14T05:50:46;94822.72;;;1.71;70.28
41078;BME280;26823;42.662;23.352;2023-03-14T05:53:12;94820.13;;;1.83;70.21
41078;BME280;26823;42.662;23.352;2023-03-14T05:55:38;94809.16;;;1.91;68.84
41078;BME280;26823;42.662;23.352;2023-03-14T05:58:04;94808.63;;;2.31;68.21
41078;BME280;26823;42.662;23.352;2023-03-14T06:00:29;94820.06;;;3.16;64.11
41078;BME280;26823;42.662;23.352;2023-03-14T06:02:54;94821.09;;;4.73;57.62
41078;BME280;26823;42.662;23.352;2023-03-14T06:05:20;94813.84;;;6.20;52.88
41078;BME280;26823;42.662;23.352;2023-03-14T06:07:45;94831.44;;;7.15;48.31
41078;BME280;26823;42.662;23.352;2023-03-14T06:10:17;94823.66;;;7.56;47.51
41078;BME280;26823;42.662;23.352;2023-03-14T06:12:42;94818.38;;;7.66;45.36
41078;BME280;26823;42.662;23.352;2023-03-14T06:15:08;94812.34;;;8.55;44.03
41078;BME280;26823;42.662;23.352;2023-03-14T06:17:33;94808.03;;;8.70;41.15
41078;BME280;26823;42.662;23.352;2023-03-14T06:19:59;94828.97;;;8.42;40.86
41078;BME280;26823;42.662;23.352;2023-03-14T06:22:24;94823.09;;;7.11;42.54
41078;BME280;26823;42.662;23.352;2023-03-14T06:24:49;94813.88;;;6.47;45.36
41078;BME280;26823;42.662;23.352;2023-03-14T06:27:15;94823.25;;;6.72;43.61
41078;BME280;26823;42.662;23.352;2023-03-14T06:29:41;94836.69;;;8.23;40.44
41078;BME280;26823;42.662;23.352;2023-03-14T06:32:06;94810.44;;;8.56;39.82
41078;BME280;26823;42.662;23.352;2023-03-14T06:34:31;94836.47;;;10.56;36.35
41078;BME280;26823;42.662;23.352;2023-03-14T06:36:57;94837.91;;;12.46;33.54
41078;BME280;26823;42.662;23.352;2023-03-14T06:39:22;94832.59;;;13.36;31.67
41078;BME280;26823;42.662;23.352;2023-03-14T06:41:48;94824.31;;;13.79;30.53
41078;BME280;26823;42.662;23.352;2023-03-14T06:44:13;94818.97;;;13.03;31.17
41078;BME280;26823;42.662;23.352;2023-03-14T06:46:38;94816.66;;;11.75;33.91
41078;BME280;26823;42.662;23.352;2023-03-14T06:49:04;94820.16;;;11.81;32.58
41078;BME280;26823;42.662;23.352;2023-03-14T06:51:29;94812.84;;;11.12;33.65
41078;BME280;26823;42.662;23.352;2023-03-14T06:53:54;94806.34;;;10.03;35.25
41078;BME280;26823;42.662;23.352;2023-03-14T06:56:20;94784.63;;;8.07;39.88
41078;BME280;26823;42.662;23.352;2023-03-14T06:58:45;94795.72;;;10.27;35.83
41078;BME280;26823;42.662;23.352;2023-03-14T07:01:24;94786.66;;;9.97;35.72
41078;BME280;26823;42.662;23.352;2023-03-14T07:03:50;94794.69;;;11.77;33.18
41078;BME280;26823;42.662;23.352;2023-03-14T07:06:16;94798.84;;;12.47;31.26
41078;BME280;26823;42.662;23.352;2023-03-14T07:08:41;94790.94;;;12.02;32.18
41078;BME280;26823;42.662;23.352;2023-03-14T07:11:07;94788.66;;;12.57;30.54
41078;BME280;26823;42.662;23.352;2023-03-14T07:13:33;94794.16;;;13.95;29.28
41078;BME280;26823;42.662;23.352;2023-03-14T07:15:58;94789.31;;;14.47;28.31
41078;BME280;26823;42.662;23.352;2023-03-14T07:18:24;94783.78;;;14.25;28.32
41078;BME280;26823;42.662;23.352;2023-03-14T07:20:49;94790.78;;;13.70;29.06
41078;BME280;26823;42.662;23.352;2023-03-14T07:23:14;94781.56;;;13.00;29.42
41078;BME280;26823;42.662;23.352;2023-03-14T07:25:40;94790.00;;;13.69;28.75
41078;BME280;26823;42.662;23.352;2023-03-14T07:28:06;94786.19;;;13.98;28.86
41078;BME280;26823;42.662;23.352;2023-03-14T07:30:31;94789.22;;;14.52;28.74
41078;BME280;26823;42.662;23.352;2023-03-14T07:32:56;94798.22;;;15.94;26.63
41078;BME280;26823;42.662;23.352;2023-03-14T07:35:22;94786.09;;;14.59;28.71
41078;BME280;26823;42.662;23.352;2023-03-14T07:37:47;94769.19;;;14.21;28.49
41078;BME280;26823;42.662;23.352;2023-03-14T07:40:13;94778.69;;;13.62;29.33
41078;BME280;26823;42.662;23.352;2023-03-14T07:42:41;94763.97;;;11.62;32.13
41078;BME280;26823;42.662;23.352;2023-03-14T07:45:08;94763.69;;;12.17;31.40
41078;BME280;26823;42.662;23.352;2023-03-14T07:47:33;94761.91;;;14.44;28.56
41078;BME280;26823;42.662;23.352;2023-03-14T07:49:58;94750.56;;;14.00;28.68
41078;BME280;26823;42.662;23.352;2023-03-14T07:52:24;94747.00;;;14.41;28.21
41078;BME280;26823;42.662;23.352;2023-03-14T07:54:49;94756.25;;;16.04;27.18
41078;BME280;26823;42.662;23.352;2023-03-14T07:57:15;94756.22;;;16.36;24.96
41078;BME280;26823;42.662;23.352;2023-03-14T07:59:41;94752.97;;;15.62;25.76
41078;BME280;26823;42.662;23.352;2023-03-14T08:02:10;94763.78;;;16.56;25.46
41078;BME280;26823;42.662;23.352;2023-03-14T08:04:37;94757.16;;;16.98;24.93
41078;BME280;26823;42.662;23.352;2023-03-14T08:07:03;94730.09;;;16.03;24.85
41078;BME280;26823;42.662;23.352;2023-03-14T08:09:29;94742.66;;;14.40;26.76
41078;BME280;26823;42.662;23.352;2023-03-14T08:11:54;94752.75;;;15.81;25.82
41078;BME280;26823;42.662;23.352;2023-03-14T08:14:20;94759.19;;;16.17;25.31
41078;BME280;26823;42.662;23.352;2023-03-14T08:16:45;94763.31;;;16.63;24.65
41078;BME280;26823;42.662;23.352;2023-03-14T08:19:11;94732.97;;;16.47;25.14
41078;BME280;26823;42.662;23.352;2023-03-14T08:21:36;94758.50;;;16.51;25.02
41078;BME280;26823;42.662;23.352;2023-03-14T08:24:02;94751.50;;;14.74;26.76
41078;BME280;26823;42.662;23.352;2023-03-14T08:26:28;94748.63;;;14.14;27.14
41078;BME280;26823;42.662;23.352;2023-03-14T08:28:53;94739.72;;;13.53;27.86
41078;BME280;26823;42.662;23.352;2023-03-14T08:31:18;94743.19;;;14.00;27.43
41078;BME280;26823;42.662;23.352;2023-03-14T08:33:44;94750.66;;;14.37;27.17
41078;BME280;26823;42.662;23.352;2023-03-14T08:36:09;94741.81;;;13.23;28.94
41078;BME280;26823;42.662;23.352;2023-03-14T08:38:35;94729.59;;;14.00;28.34
41078;BME280;26823;42.662;23.352;2023-03-14T08:41:01;94730.81;;;14.08;27.57
41078;BME280;26823;42.662;23.352;2023-03-14T08:43:27;94728.25;;;14.54;26.84
41078;BME280;26823;42.662;23.352;2023-03-14T08:45:53;94722.53;;;14.27;27.01
41078;BME280;26823;42.662;23.352;2023-03-14T08:48:22;94720.66;;;14.14;27.49
41078;BME280;26823;42.662;23.352;2023-03-14T08:50:47;94714.25;;;14.32;27.08
41078;BME280;26823;42.662;23.352;2023-03-14T08:53:13;94710.44;;;15.29;26.28
41078;BME280;26823;42.662;23.352;2023-03-14T08:55:38;94708.16;;;15.54;24.96
41078;BME280;26823;42.662;23.352;2023-03-14T08:58:04;94687.81;;;16.32;24.20
41078;BME280;26823;42.662;23.352;2023-03-14T09:00:29;94713.00;;;16.38;23.89
41078;BME280;26823;42.662;23.352;2023-03-14T09:02:54;94711.06;;;16.21;25.36
41078;BME280;26823;42.662;23.352;2023-03-14T09:05:20;94692.97;;;15.85;24.33
41078;BME280;26823;42.662;23.352;2023-03-14T09:07:45;94689.09;;;15.86;24.70
41078;BME280;26823;42.662;23.352;2023-03-14T09:10:11;94689.06;;;16.26;24.93
41078;BME280;26823;42.662;23.352;2023-03-14T09:12:37;94688.13;;;16.30;24.43
41078;BME280;26823;42.662;23.352;2023-03-14T09:15:03;94675.25;;;15.73;24.19
41078;BME280;26823;42.662;23.352;2023-03-14T09:17:29;94672.59;;;16.75;23.85
41078;BME280;26823;42.662;23.352;2023-03-14T09:19:54;94653.81;;;16.56;23.49
41078;BME280;26823;42.662;23.352;2023-03-14T09:22:20;94652.34;;;16.50;23.36
41078;BME280;26823;42.662;23.352;2023-03-14T09:24:46;94663.41;;;17.32;22.73
41078;BME280;26823;42.662;23.352;2023-03-14T09:27:12;94652.31;;;16.23;24.76
41078;BME280;26823;42.662;23.352;2023-03-14T09:29:37;94641.25;;;16.28;23.81
41078;BME280;26823;42.662;23.352;2023-03-14T09:32:03;94645.41;;;17.22;23.89
41078;BME280;26823;42.662;23.352;2023-03-14T09:34:28;94635.97;;;17.67;23.29
41078;BME280;26823;42.662;23.352;2023-03-14T09:36:54;94620.22;;;18.03;22.27
41078;BME280;26823;42.662;23.352;2023-03-14T09:39:20;94635.88;;;17.85;21.34
41078;BME280;26823;42.662;23.352;2023-03-14T09:41:54;94618.78;;;17.58;22.08
41078;BME280;26823;42.662;23.352;2023-03-14T09:44:27;94623.91;;;16.33;23.54
41078;BME280;26823;42.662;23.352;2023-03-14T09:46:57;94611.53;;;16.09;24.11
41078;BME280;26823;42.662;23.352;2023-03-14T09:49:28;94596.97;;;15.74;24.18
41078;BME280;26823;42.662;23.352;2023-03-14T09:51:56;94599.44;;;15.04;24.55
41078;BME280;26823;42.662;23.352;2023-03-14T09:54:30;94583.16;;;15.61;25.70
41078;BME280;26823;42.662;23.352;2023-03-14T09:56:56;94582.00;;;16.55;24.53
41078;BME280;26823;42.662;23.352;2023-03-14T09:59:28;94581.66;;;16.66;23.01
41078;BME280;26823;42.662;23.352;2023-03-14T10:01:58;94585.66;;;15.09;24.96
41078;BME280;26823;42.662;23.352;2023-03-14T10:04:40;94569.66;;;15.16;25.47
41078;BME280;26823;42.662;23.352;2023-03-14T10:07:18;94563.94;;;15.26;25.58
41078;BME280;26823;42.662;23.352;2023-03-14T10:09:51;94564.72;;;14.87;26.31
41078;BME280;26823;42.662;23.352;2023-03-14T10:12:18;94562.75;;;14.33;26.69
41078;BME280;26823;42.662;23.352;2023-03-14T10:14:49;94549.38;;;14.23;27.69
41078;BME280;26823;42.662;23.352;2023-03-14T10:17:16;94559.88;;;15.06;27.08
41078;BME280;26823;42.662;23.352;2023-03-14T10:19:56;94551.34;;;16.23;25.63
41078;BME280;26823;42.662;23.352;2023-03-14T10:22:25;94544.25;;;16.66;24.68
41078;BME280;26823;42.662;23.352;2023-03-14T10:24:53;94547.34;;;16.12;25.59
41078;BME280;26823;42.662;23.352;2023-03-14T10:27:27;94521.28;;;15.79;27.00
41078;BME280;26823;42.662;23.352;2023-03-14T10:30:01;94525.69;;;15.49;27.35
41078;BME280;26823;42.662;23.352;2023-03-14T10:32:31;94513.25;;;15.57;27.42
41078;BME280;26823;42.662;23.352;2023-03-14T10:37:31;94504.00;;;16.02;26.66
41078;BME280;26823;42.662;23.352;2023-03-14T10:40:00;94490.78;;;15.02;27.93
41078;BME280;26823;42.662;23.352;2023-03-14T10:42:33;94488.84;;;14.94;28.33
41078;BME280;26823;42.662;23.352;2023-03-14T10:47:54;94484.22;;;15.52;27.73
41078;BME280;26823;42.662;23.352;2023-03-14T10:52:48;94463.25;;;15.88;27.47
41078;BME280;26823;42.662;23.352;2023-03-14T10:55:14;94453.25;;;16.53;27.21
41078;BME280;26823;42.662;23.352;2023-03-14T10:57:40;94446.53;;;15.72;27.70
41078;BME280;26823;42.662;23.352;2023-03-14T11:00:17;94438.78;;;17.09;26.34
41078;BME280;26823;42.662;23.352;2023-03-14T11:02:54;94439.81;;;17.25;26.19
41078;BME280;26823;42.662;23.352;2023-03-14T11:05:40;94441.19;;;15.40;27.64
41078;BME280;26823;42.662;23.352;2023-03-14T11:08:18;94434.50;;;17.50;25.92
41078;BME280;26823;42.662;23.352;2023-03-14T11:10:48;94417.56;;;15.85;26.60
41078;BME280;26823;42.662;23.352;2023-03-14T11:13:25;94406.91;;;15.65;27.72
41078;BME280;26823;42.662;23.352;2023-03-14T11:26:46;94380.31;;;17.73;25.09
41078;BME280;26823;42.662;23.352;2023-03-14T11:32:34;94367.25;;;18.58;24.16
41078;BME280;26823;42.662;23.352;2023-03-14T11:34:55;94357.81;;;18.93;23.02
41078;BME280;26823;42.662;23.352;2023-03-14T11:37:34;94350.81;;;18.83;23.35
41078;BME280;26823;42.662;23.352;2023-03-14T11:40:23;94341.50;;;17.17;24.51
41078;BME280;26823;42.662;23.352;2023-03-14T11:45:30;94331.91;;;16.42;26.15
41078;BME280;26823;42.662;23.352;2023-03-14T11:50:48;94311.91;;;16.89;25.88
41078;BME280;26823;42.662;23.352;2023-03-14T11:53:20;94322.31;;;18.01;25.39
41078;BME280;26823;42.662;23.352;2023-03-14T11:55:47;94300.69;;;17.87;24.05
41078;BME280;26823;42.662;23.352;2023-03-14T11:58:20;94298.72;;;17.54;24.19
41078;BME280;26823;42.662;23.352;2023-03-14T12:00:49;94302.56;;;16.30;25.44
41078;BME280;26823;42.662;23.352;2023-03-14T12:03:33;94303.47;;;16.73;25.12
41078;BME280;26823;42.662;23.352;2023-03-14T12:08:47;94288.88;;;17.62;24.59
41078;BME280;26823;42.662;23.352;2023-03-14T12:13:55;94281.16;;;17.98;24.13
41078;BME280;26823;42.662;23.352;2023-03-14T12:16:26;94280.38;;;18.09;24.01
41078;BME280;26823;42.662;23.352;2023-03-14T12:18:52;94270.59;;;18.58;23.86
41078;BME280;26823;42.662;23.352;2023-03-14T12:21:19;94225.75;;;18.63;23.16
41078;BME280;26823;42.662;23.352;2023-03-14T12:23:57;94255.81;;;17.34;24.68
41078;BME280;26823;42.662;23.352;2023-03-14T12:26:25;94248.69;;;18.58;23.86
41078;BME280;26823;42.662;23.352;2023-03-14T12:29:37;94238.97;;;18.73;23.52
41078;BME280;26823;42.662;23.352;2023-03-14T12:34:41;94243.91;;;17.38;24.29
41078;BME280;26823;42.662;23.352;2023-03-14T12:48:09;94223.38;;;18.36;23.78
41078;BME280;26823;42.662;23.352;2023-03-14T12:50:46;94214.28;;;16.77;24.57
41078;BME280;26823;42.662;23.352;2023-03-14T12:53:36;94214.06;;;17.12;24.49
41078;BME280;26823;42.662;23.352;2023-03-14T13:01:28;94189.13;;;16.50;25.05
41078;BME280;26823;42.662;23.352;2023-03-14T13:03:56;94195.16;;;17.40;24.33
41078;BME280;26823;42.662;23.352;2023-03-14T13:11:55;94170.84;;;16.93;24.33
41078;BME280;26823;42.662;23.352;2023-03-14T13:14:22;94166.66;;;17.75;24.11
41078;BME280;26823;42.662;23.352;2023-03-14T13:16:49;94166.00;;;18.28;23.75
41078;BME280;26823;42.662;23.352;2023-03-14T13:19:19;94148.91;;;17.93;23.52
41078;BME280;26823;42.662;23.352;2023-03-14T13:21:47;94159.00;;;17.81;23.38
41078;BME280;26823;42.662;23.352;2023-03-14T13:24:22;94156.50;;;17.88;23.06
41078;BME280;26823;42.662;23.352;2023-03-14T13:26:48;94146.25;;;18.47;22.10
41078;BME280;26823;42.662;23.352;2023-03-14T13:31:46;94135.03;;;17.53;23.17
41078;BME280;26823;42.662;23.352;2023-03-14T13:34:12;94134.41;;;17.93;22.78
41078;BME280;26823;42.662;23.352;2023-03-14T13:36:38;94130.06;;;16.88;22.90
41078;BME280;26823;42.662;23.352;2023-03-14T13:39:06;94117.81;;;16.94;23.78
41078;BME280;26823;42.662;23.352;2023-03-14T13:41:37;94114.31;;;16.00;24.51
41078;BME280;26823;42.662;23.352;2023-03-14T13:44:06;94111.69;;;16.76;23.78
41078;BME280;26823;42.662;23.352;2023-03-14T13:46:36;94091.41;;;16.77;24.44
41078;BME280;26823;42.662;23.352;2023-03-14T13:49:04;94088.63;;;16.86;23.77
41078;BME280;26823;42.662;23.352;2023-03-14T13:51:31;94088.09;;;17.38;24.08
41078;BME280;26823;42.662;23.352;2023-03-14T13:54:00;94087.34;;;17.75;23.39
41078;BME280;26823;42.662;23.352;2023-03-14T13:56:28;94085.75;;;17.03;23.61
41078;BME280;26823;42.662;23.352;2023-03-14T13:58:54;94073.09;;;16.23;24.61
41078;BME280;26823;42.662;23.352;2023-03-14T14:01:21;94076.47;;;16.62;24.04
41078;BME280;26823;42.662;23.352;2023-03-14T14:03:50;94062.72;;;16.37;24.86
41078;BME280;26823;42.662;23.352;2023-03-14T14:08:57;94035.19;;;16.09;25.08